createdAt,value
2022-12-03T00:00:51.273Z,44.15
2022-12-03T00:03:18.732Z,44.99
2022-12-03T00:05:49.144Z,44.65
2022-12-03T00:08:17.773Z,44.19
2022-12-03T00:13:39.328Z,44.56
2022-12-03T00:16:05.870Z,44.64
2022-12-03T00:18:32.437Z,44.51
2022-12-03T00:20:59.756Z,44.20
2022-12-03T00:23:26.184Z,44.33
2022-12-03T00:28:37.669Z,44.41
2022-12-03T00:31:04.108Z,44.61
2022-12-03T00:33:30.579Z,44.48
2022-12-03T00:35:57.868Z,44.69
2022-12-03T00:38:25.211Z,44.42
2022-12-03T00:43:36.692Z,44.64
2022-12-03T00:46:04.030Z,44.71
2022-12-03T00:48:34.057Z,44.41
2022-12-03T00:51:01.351Z,44.63
2022-12-03T00:53:28.636Z,44.53
2022-12-03T00:58:50.925Z,44.88
2022-12-03T01:01:18.277Z,44.52
2022-12-03T01:03:45.594Z,44.60
2022-12-03T01:06:12.990Z,44.30
2022-12-03T01:08:41.313Z,45.65
2022-12-03T01:13:54.437Z,44.75
2022-12-03T01:16:21.023Z,44.72
2022-12-03T01:18:47.472Z,44.74
2022-12-03T01:21:14.713Z,44.27
2022-12-03T01:23:42.023Z,44.40
2022-12-03T01:29:04.353Z,44.51
2022-12-03T01:31:30.951Z,45.59
2022-12-03T01:33:57.406Z,44.91
2022-12-03T01:36:23.890Z,45.51
2022-12-03T01:38:51.173Z,44.95
2022-12-03T01:44:02.374Z,45.00
2022-12-03T01:46:28.852Z,44.58
2022-12-03T01:48:56.143Z,44.63
2022-12-03T01:51:22.548Z,45.18
2022-12-03T01:53:49.836Z,44.56
2022-12-03T01:56:17.124Z,44.66
2022-12-03T01:58:43.583Z,44.97
2022-12-03T02:01:11.860Z,44.88
2022-12-03T02:03:39.197Z,45.38
2022-12-03T02:06:07.522Z,45.27
2022-12-03T02:08:35.931Z,45.46
2022-12-03T02:11:02.393Z,44.77
2022-12-03T02:13:30.698Z,44.78
2022-12-03T02:15:57.207Z,44.69
2022-12-03T02:18:23.670Z,45.09
2022-12-03T02:20:50.152Z,44.67
2022-12-03T02:23:17.384Z,44.59
2022-12-03T02:25:45.725Z,45.06
2022-12-03T02:28:14.898Z,45.17
2022-12-03T02:30:42.182Z,45.89
2022-12-03T02:33:09.475Z,45.02
2022-12-03T02:35:37.763Z,45.69
2022-12-03T02:38:05.041Z,44.90
2022-12-03T02:40:32.359Z,45.16
2022-12-03T02:42:59.635Z,44.82
2022-12-03T02:45:28.801Z,44.88
2022-12-03T02:47:57.976Z,44.79
2022-12-03T02:50:27.154Z,44.75
2022-12-03T02:52:56.338Z,45.73
2022-12-03T02:55:22.819Z,45.16
2022-12-03T02:57:51.995Z,44.67
2022-12-03T03:00:18.388Z,44.90
2022-12-03T03:02:44.880Z,44.79
2022-12-03T03:05:11.306Z,45.09
2022-12-03T03:07:37.772Z,44.85
2022-12-03T03:10:04.307Z,45.06
2022-12-03T03:12:34.833Z,44.95
2022-12-03T03:18:01.952Z,44.97
2022-12-03T03:20:31.921Z,45.05
2022-12-03T03:22:58.420Z,44.66
2022-12-03T03:25:24.853Z,45.97
2022-12-03T03:27:53.192Z,44.88
2022-12-03T03:33:03.519Z,46.01
2022-12-03T03:35:31.780Z,44.80
2022-12-03T03:38:00.103Z,45.00
2022-12-03T03:40:26.509Z,44.96
2022-12-03T03:42:55.667Z,45.09
2022-12-03T03:48:07.762Z,44.99
2022-12-03T03:50:34.144Z,44.76
2022-12-03T03:53:03.319Z,44.92
2022-12-03T03:55:29.721Z,44.83
2022-12-03T03:57:58.942Z,44.95
2022-12-03T04:03:12.928Z,45.23
2022-12-03T04:05:39.357Z,44.89
2022-12-03T04:08:05.839Z,45.36
2022-12-03T04:10:32.354Z,45.05
2022-12-03T04:12:58.771Z,45.24
2022-12-03T04:18:19.040Z,45.67
2022-12-03T04:20:47.333Z,45.00
2022-12-03T04:23:13.759Z,44.87
2022-12-03T04:25:41.007Z,45.40
2022-12-03T04:28:09.291Z,45.17
2022-12-03T04:33:35.477Z,45.11
2022-12-03T04:36:03.763Z,45.18
2022-12-03T04:38:31.007Z,45.24
2022-12-03T04:41:00.221Z,45.29
2022-12-03T04:43:26.637Z,45.25
2022-12-03T04:48:39.107Z,45.08
2022-12-03T04:51:05.528Z,45.89
2022-12-03T04:53:36.260Z,45.26
2022-12-03T04:56:04.732Z,45.04
2022-12-03T04:58:31.242Z,45.22
2022-12-03T05:03:43.710Z,44.91
2022-12-03T05:06:10.089Z,45.83
2022-12-03T05:08:36.489Z,44.76
2022-12-03T05:11:02.915Z,44.77
2022-12-03T05:13:32.818Z,44.65
2022-12-03T05:18:55.917Z,45.12
2022-12-03T05:21:22.339Z,45.41
2022-12-03T05:23:49.728Z,45.32
2022-12-03T05:26:16.186Z,46.13
2022-12-03T05:28:43.581Z,45.39
2022-12-03T05:34:03.817Z,45.31
2022-12-03T05:36:30.325Z,45.77
2022-12-03T05:38:56.776Z,45.55
2022-12-03T05:41:24.124Z,45.64
2022-12-03T05:43:50.571Z,44.90
2022-12-03T05:49:03.079Z,44.85
2022-12-03T05:51:29.494Z,44.21
2022-12-03T05:53:55.953Z,44.56
2022-12-03T05:56:22.427Z,44.68
2022-12-03T05:58:48.910Z,44.95
2022-12-03T06:04:00.247Z,45.15
2022-12-03T06:06:26.857Z,45.70
2022-12-03T06:08:54.340Z,45.23
2022-12-03T06:11:20.761Z,45.40
2022-12-03T06:13:48.279Z,45.49
2022-12-03T06:19:10.945Z,45.70
2022-12-03T06:21:38.568Z,46.30
2022-12-03T06:24:05.239Z,45.38
2022-12-03T06:26:32.849Z,45.85
2022-12-03T06:28:59.653Z,46.12
2022-12-03T06:34:11.566Z,46.01
2022-12-03T06:36:38.269Z,44.16
2022-12-03T06:39:05.017Z,44.42
2022-12-03T06:41:31.839Z,43.50
2022-12-03T06:43:58.310Z,41.88
2022-12-03T06:49:18.814Z,42.80
2022-12-03T06:51:46.218Z,42.62
2022-12-03T06:54:13.852Z,38.10
2022-12-03T06:56:45.135Z,43.10
2022-12-03T06:59:13.065Z,43.44
2022-12-03T07:04:24.693Z,44.98
2022-12-03T07:06:52.199Z,42.31
2022-12-03T07:09:19.583Z,38.00
2022-12-03T07:11:46.988Z,38.30
2022-12-03T07:14:13.440Z,41.16
2022-12-03T07:19:30.662Z,40.33
2022-12-03T07:21:58.891Z,39.09
2022-12-03T07:24:26.349Z,39.34
2022-12-03T07:26:52.799Z,39.56
2022-12-03T07:29:20.168Z,39.35
2022-12-03T07:34:40.718Z,40.34
2022-12-03T07:37:08.516Z,40.87
2022-12-03T07:39:34.989Z,41.02
2022-12-03T07:42:02.400Z,41.07
2022-12-03T07:44:28.895Z,41.68
2022-12-03T07:49:39.792Z,41.52
2022-12-03T07:52:06.265Z,41.69
2022-12-03T07:54:32.756Z,41.53
2022-12-03T07:57:01.702Z,41.35
2022-12-03T07:59:28.488Z,41.29
2022-12-03T08:01:55.340Z,41.55
2022-12-03T08:04:21.871Z,41.29
2022-12-03T08:06:48.466Z,41.54
2022-12-03T08:09:16.312Z,41.72
2022-12-03T08:11:43.951Z,41.66
2022-12-03T08:14:10.456Z,41.67
2022-12-03T08:16:37.986Z,41.57
2022-12-03T08:19:04.557Z,41.79
2022-12-03T08:21:31.015Z,41.66
2022-12-03T08:23:58.407Z,41.91
2022-12-03T08:26:25.329Z,42.06
2022-12-03T08:28:51.768Z,42.02
2022-12-03T08:31:18.254Z,42.11
2022-12-03T08:33:45.706Z,42.08
2022-12-03T08:36:13.091Z,42.26
2022-12-03T08:38:39.566Z,42.24
2022-12-03T08:41:06.017Z,41.94
2022-12-03T08:43:32.474Z,42.29
2022-12-03T08:45:59.882Z,42.31
2022-12-03T08:48:26.626Z,42.46
2022-12-03T08:50:54.014Z,42.19
2022-12-03T08:53:20.467Z,42.61
2022-12-03T08:55:46.926Z,42.24
2022-12-03T08:58:13.384Z,42.52
2022-12-03T09:00:40.796Z,42.50
2022-12-03T09:03:08.223Z,42.45
2022-12-03T09:05:35.603Z,42.36
2022-12-03T09:08:03.052Z,42.73
2022-12-03T09:10:29.600Z,42.58
2022-12-03T09:12:56.999Z,42.53
2022-12-03T09:15:23.798Z,42.77
2022-12-03T09:17:50.234Z,42.81
2022-12-03T09:23:01.621Z,42.93
2022-12-03T09:25:29.070Z,42.56
2022-12-03T09:27:56.498Z,42.56
2022-12-03T09:30:23.880Z,42.66
2022-12-03T09:32:50.311Z,42.92
2022-12-03T09:38:12.593Z,42.95
2022-12-03T09:40:39.957Z,42.82
2022-12-03T09:43:06.396Z,42.68
2022-12-03T09:45:34.104Z,42.85
2022-12-03T09:48:01.475Z,42.74
2022-12-03T09:53:13.033Z,42.68
2022-12-03T09:55:40.392Z,42.78
2022-12-03T09:58:07.084Z,42.92
2022-12-03T10:00:33.528Z,42.92
2022-12-03T10:03:00.911Z,42.91
2022-12-03T10:08:21.841Z,42.94
2022-12-03T10:10:49.274Z,43.05
2022-12-03T10:13:19.832Z,43.10
2022-12-03T10:15:51.699Z,42.98
2022-12-03T10:18:18.184Z,42.69
2022-12-03T10:23:29.622Z,42.51
2022-12-03T10:25:56.105Z,42.88
2022-12-03T10:28:23.451Z,42.83
2022-12-03T10:30:50.880Z,42.66
2022-12-03T10:33:19.177Z,42.78
2022-12-03T10:38:29.873Z,42.83
2022-12-03T10:40:56.309Z,42.68
2022-12-03T10:43:23.724Z,42.72
2022-12-03T10:45:51.207Z,42.91
2022-12-03T10:48:17.726Z,42.77
2022-12-03T10:53:30.043Z,42.80
2022-12-03T10:55:56.499Z,42.97
2022-12-03T10:58:23.193Z,43.13
2022-12-03T11:00:50.567Z,43.11
2022-12-03T11:03:17.052Z,43.31
2022-12-03T11:08:39.339Z,43.22
2022-12-03T11:11:06.139Z,43.16
2022-12-03T11:13:48.326Z,43.13
2022-12-03T11:16:15.744Z,43.35
2022-12-03T11:18:42.246Z,43.43
2022-12-03T11:24:03.476Z,43.18
2022-12-03T11:26:30.897Z,43.40
2022-12-03T11:28:58.324Z,43.51
2022-12-03T11:31:26.679Z,43.51
2022-12-03T11:33:54.177Z,43.82
2022-12-03T11:39:04.450Z,43.88
2022-12-03T11:41:30.896Z,43.96
2022-12-03T11:43:57.325Z,44.19
2022-12-03T11:46:24.752Z,44.06
2022-12-03T11:48:52.238Z,44.55
2022-12-03T11:54:04.637Z,44.82
2022-12-03T11:56:31.317Z,44.57
2022-12-03T11:58:57.773Z,44.81
2022-12-03T12:01:24.218Z,44.87
2022-12-03T12:03:51.748Z,44.89
2022-12-03T12:09:02.205Z,44.65
2022-12-03T12:11:29.571Z,44.85
2022-12-03T12:13:56.356Z,44.99
2022-12-03T12:16:23.809Z,45.14
2022-12-03T12:18:54.875Z,45.25
2022-12-03T12:24:17.045Z,45.09
2022-12-03T12:26:45.337Z,45.28
2022-12-03T12:29:11.789Z,44.97
2022-12-03T12:31:39.373Z,44.78
2022-12-03T12:34:05.875Z,45.04
2022-12-03T12:39:26.612Z,45.15
2022-12-03T12:41:53.103Z,44.96
2022-12-03T12:44:19.583Z,45.00
2022-12-03T12:46:48.042Z,45.03
2022-12-03T12:49:15.644Z,44.81
2022-12-03T12:54:37.146Z,45.04
2022-12-03T12:57:05.330Z,44.79
2022-12-03T12:59:31.807Z,44.86
2022-12-03T13:01:58.371Z,44.97
2022-12-03T13:04:24.838Z,45.06
2022-12-03T13:09:45.262Z,45.16
2022-12-03T13:12:12.665Z,45.19
2022-12-03T13:14:39.112Z,45.42
2022-12-03T13:17:05.575Z,45.10
2022-12-03T13:19:32.017Z,45.34
2022-12-03T13:24:52.259Z,45.53
2022-12-03T13:27:19.894Z,45.09
2022-12-03T13:29:46.365Z,45.20
2022-12-03T13:32:12.923Z,45.35
2022-12-03T13:34:39.453Z,45.39
2022-12-03T13:39:51.201Z,45.77
2022-12-03T13:42:17.863Z,45.74
2022-12-03T13:44:44.345Z,45.73
2022-12-03T13:47:11.747Z,45.65
2022-12-03T13:49:38.214Z,45.98
2022-12-03T13:54:49.720Z,46.03
2022-12-03T13:57:16.162Z,46.01
2022-12-03T13:59:42.675Z,46.17
2022-12-03T14:02:09.187Z,46.04
2022-12-03T14:04:35.695Z,45.79
2022-12-03T14:07:02.190Z,46.13
2022-12-03T14:09:29.015Z,46.19
2022-12-03T14:11:55.480Z,46.02
2022-12-03T14:14:21.931Z,46.10
2022-12-03T14:16:49.358Z,46.35
2022-12-03T14:19:15.852Z,46.08
2022-12-03T14:21:43.364Z,46.22
2022-12-03T14:24:10.760Z,46.10
2022-12-03T14:26:37.245Z,46.26
2022-12-03T14:29:08.571Z,46.47
2022-12-03T14:31:35.645Z,46.12
2022-12-03T14:34:03.179Z,46.33
2022-12-03T14:36:29.635Z,46.50
2022-12-03T14:38:56.089Z,46.72
2022-12-03T14:41:22.568Z,46.55
2022-12-03T14:43:49.043Z,46.73
2022-12-03T14:46:16.508Z,46.40
2022-12-03T14:48:43.002Z,46.63
2022-12-03T14:51:10.408Z,46.48
2022-12-03T14:53:36.890Z,46.64
2022-12-03T14:56:03.654Z,46.83
2022-12-03T14:58:30.107Z,46.83
2022-12-03T15:00:56.616Z,46.87
2022-12-03T15:03:23.156Z,46.86
2022-12-03T15:05:49.660Z,46.69
2022-12-03T15:08:16.194Z,47.16
2022-12-03T15:10:42.689Z,46.90
2022-12-03T15:13:09.377Z,47.05
2022-12-03T15:15:36.780Z,47.00
2022-12-03T15:18:06.010Z,47.11
2022-12-03T15:20:32.816Z,47.17
2022-12-03T15:22:59.272Z,47.09
2022-12-03T15:28:11.408Z,47.18
2022-12-03T15:30:37.882Z,47.02
2022-12-03T15:33:04.366Z,47.19
2022-12-03T15:35:30.857Z,47.02
2022-12-03T15:37:57.408Z,47.30
2022-12-03T15:43:08.316Z,47.22
2022-12-03T15:45:35.731Z,47.32
2022-12-03T15:48:02.198Z,47.43
2022-12-03T15:50:28.718Z,47.25
2022-12-03T15:52:55.190Z,47.54
2022-12-03T15:58:16.652Z,47.43
2022-12-03T16:00:44.116Z,47.52
2022-12-03T16:03:11.570Z,47.75
2022-12-03T16:05:39.028Z,47.47
2022-12-03T16:08:05.566Z,47.43
2022-12-03T16:13:16.144Z,47.45
2022-12-03T16:15:42.690Z,47.65
2022-12-03T16:18:10.065Z,47.59
2022-12-03T16:20:36.576Z,47.60
2022-12-03T16:23:03.043Z,47.66
2022-12-03T16:28:23.469Z,47.42
2022-12-03T16:30:50.156Z,47.49
2022-12-03T16:33:20.146Z,47.45
2022-12-03T16:35:51.616Z,47.53
2022-12-03T16:38:19.052Z,47.72
2022-12-03T16:43:29.431Z,47.82
2022-12-03T16:45:55.980Z,47.78
2022-12-03T16:48:22.735Z,47.79
2022-12-03T16:50:49.216Z,47.59
2022-12-03T16:53:15.700Z,47.61
2022-12-03T16:58:36.565Z,47.73
2022-12-03T17:01:03.045Z,47.66
2022-12-03T17:03:33.790Z,47.77
2022-12-03T17:06:01.122Z,47.77
2022-12-03T17:08:27.612Z,47.75
2022-12-03T17:13:38.896Z,47.69
2022-12-03T17:16:05.388Z,47.80
2022-12-03T17:18:31.981Z,47.83
2022-12-03T17:20:59.373Z,47.87
2022-12-03T17:23:25.883Z,47.87
2022-12-03T17:28:38.541Z,48.99
2022-12-03T17:31:05.110Z,49.36
2022-12-03T17:33:31.673Z,49.73
2022-12-03T17:35:58.146Z,49.63
2022-12-03T17:38:24.645Z,50.12
2022-12-03T17:43:46.138Z,50.81
2022-12-03T17:46:13.580Z,51.11
2022-12-03T17:48:40.104Z,51.28
2022-12-03T17:51:06.618Z,51.70
2022-12-03T17:53:33.044Z,49.76
2022-12-03T17:58:45.247Z,50.20
2022-12-03T18:01:11.671Z,50.81
2022-12-03T18:03:39.079Z,51.62
2022-12-03T18:06:06.575Z,51.89
2022-12-03T18:08:35.123Z,51.50
2022-12-03T18:13:56.245Z,52.42
2022-12-03T18:16:23.699Z,52.26
2022-12-03T18:18:56.227Z,52.30
2022-12-03T18:21:24.563Z,51.73
2022-12-03T18:23:51.853Z,51.58
2022-12-03T18:29:03.018Z,51.23
2022-12-03T18:31:29.496Z,52.22
2022-12-03T18:33:56.954Z,52.51
2022-12-03T18:36:24.342Z,53.08
2022-12-03T18:38:51.886Z,51.55
2022-12-03T18:44:03.544Z,51.80
2022-12-03T18:46:52.273Z,50.43
2022-12-03T18:49:18.603Z,50.62
2022-12-03T18:51:45.064Z,50.98
2022-12-03T18:54:12.453Z,50.24
2022-12-03T18:59:33.283Z,51.13
2022-12-03T19:02:00.887Z,51.23
2022-12-03T19:04:27.424Z,50.57
2022-12-03T19:06:54.836Z,51.19
2022-12-03T19:09:21.316Z,50.73
2022-12-03T19:14:31.770Z,50.24
2022-12-03T19:16:59.146Z,50.16
2022-12-03T19:19:26.680Z,50.55
2022-12-03T19:21:53.136Z,50.59
2022-12-03T19:24:24.874Z,51.02
2022-12-03T19:29:46.031Z,51.25
2022-12-03T19:32:12.646Z,50.89
2022-12-03T19:34:40.037Z,50.80
2022-12-03T19:37:06.543Z,50.95
2022-12-03T19:39:32.998Z,50.53
2022-12-03T19:41:59.446Z,51.72
2022-12-03T19:44:27.268Z,52.11
2022-12-03T19:46:53.725Z,52.00
2022-12-03T19:49:21.124Z,52.72
2022-12-03T19:51:47.608Z,52.50
2022-12-03T19:54:14.070Z,52.61
2022-12-03T19:56:41.509Z,52.47
2022-12-03T19:59:08.903Z,53.39
2022-12-03T20:01:35.370Z,52.93
2022-12-03T20:04:03.010Z,53.41
2022-12-03T20:06:30.359Z,53.14
2022-12-03T20:08:57.775Z,53.70
2022-12-03T20:11:25.160Z,53.27
2022-12-03T20:13:51.613Z,52.61
2022-12-03T20:16:18.310Z,53.23
2022-12-03T20:18:44.820Z,53.76
2022-12-03T20:21:12.224Z,52.25
2022-12-03T20:23:38.711Z,52.71
2022-12-03T20:26:06.108Z,51.56
2022-12-03T20:28:33.522Z,51.27
2022-12-03T20:31:00.958Z,51.57
2022-12-03T20:33:27.677Z,50.89
2022-12-03T20:35:54.125Z,50.43
2022-12-03T20:38:21.512Z,50.78
2022-12-03T20:40:47.981Z,50.22
2022-12-03T20:43:15.425Z,50.18
2022-12-03T20:45:41.948Z,49.95
2022-12-03T20:48:08.515Z,50.13
2022-12-03T20:50:35.967Z,49.36
2022-12-03T20:53:23.809Z,49.42
2022-12-03T20:55:49.952Z,49.39
2022-12-03T20:58:17.340Z,49.64
2022-12-03T21:00:43.821Z,49.35
2022-12-03T21:03:10.353Z,49.13
2022-12-03T21:05:37.860Z,49.26
2022-12-03T21:08:04.513Z,49.08
2022-12-03T21:10:32.011Z,48.26
2022-12-03T21:12:59.428Z,48.51
2022-12-03T21:18:21.242Z,49.08
2022-12-03T21:20:48.840Z,49.14
2022-12-03T21:23:16.261Z,49.36
2022-12-03T21:25:42.715Z,48.26
2022-12-03T21:28:09.178Z,48.36
2022-12-03T21:33:20.750Z,48.75
2022-12-03T21:35:48.126Z,48.88
2022-12-03T21:38:15.523Z,49.10
2022-12-03T21:40:42.992Z,49.67
2022-12-03T21:43:09.451Z,49.69
2022-12-03T21:48:29.706Z,49.31
2022-12-03T21:50:56.181Z,49.14
2022-12-03T21:53:22.667Z,49.31
2022-12-03T21:55:49.431Z,49.33
2022-12-03T21:58:16.835Z,49.38
2022-12-03T22:03:29.266Z,48.82
2022-12-03T22:05:55.740Z,48.73
2022-12-03T22:08:22.265Z,49.13
2022-12-03T22:10:49.746Z,49.26
2022-12-03T22:13:16.261Z,49.23
2022-12-03T22:18:27.903Z,48.97
2022-12-03T22:20:54.441Z,49.97
2022-12-03T22:23:20.899Z,48.73
2022-12-03T22:25:48.275Z,48.82
2022-12-03T22:28:15.667Z,49.44
2022-12-03T22:33:38.019Z,48.99
2022-12-03T22:36:05.403Z,49.04
2022-12-03T22:38:31.877Z,49.30
2022-12-03T22:40:59.253Z,48.81
2022-12-03T22:43:26.642Z,48.94
2022-12-03T22:48:37.207Z,48.80
2022-12-03T22:51:04.598Z,48.72
2022-12-03T22:53:31.110Z,48.75
2022-12-03T22:55:57.556Z,49.11
2022-12-03T22:58:24.031Z,48.49
2022-12-03T23:03:44.427Z,49.27
2022-12-03T23:06:11.841Z,48.63
2022-12-03T23:08:39.229Z,48.88
2022-12-03T23:11:07.402Z,48.63
2022-12-03T23:13:33.848Z,49.12
2022-12-03T23:18:54.024Z,48.86
2022-12-03T23:21:24.014Z,49.24
2022-12-03T23:23:55.228Z,48.94
2022-12-03T23:26:22.807Z,49.23
2022-12-03T23:28:50.154Z,49.49
2022-12-03T23:34:01.519Z,48.80
2022-12-03T23:36:29.016Z,48.52
2022-12-03T23:38:56.482Z,49.10
2022-12-03T23:41:22.942Z,48.73
2022-12-03T23:43:49.383Z,49.47
2022-12-03T23:49:10.976Z,49.06
2022-12-03T23:51:38.396Z,48.25
2022-12-03T23:54:05.791Z,48.88
2022-12-03T23:56:32.235Z,49.27
2022-12-03T23:58:58.706Z,49.10
